createdAt,value
2022-10-07T00:02:22.387Z,14.93
2022-10-07T00:05:20.228Z,14.98
2022-10-07T00:21:51.779Z,15.48
2022-10-07T00:24:18.443Z,16.05
2022-10-07T00:26:45.110Z,16.40
2022-10-07T00:29:11.722Z,16.88
2022-10-07T00:31:38.617Z,21.70
2022-10-07T00:34:05.458Z,15.38
2022-10-07T00:36:35.258Z,20.92
2022-10-07T00:39:07.903Z,18.40
2022-10-07T00:41:37.640Z,17.73
2022-10-07T00:44:31.990Z,15.10
2022-10-07T00:47:01.318Z,16.02
2022-10-07T00:49:30.252Z,15.43
2022-10-07T00:51:58.019Z,20.30
2022-10-07T00:54:25.241Z,17.60
2022-10-07T00:56:52.485Z,14.45
2022-10-07T00:59:21.209Z,16.13
2022-10-07T01:01:47.819Z,15.05
2022-10-07T01:04:15.616Z,14.35
2022-10-07T01:06:43.049Z,12.05
2022-10-07T01:09:11.209Z,16.45
2022-10-07T01:13:10.877Z,16.15
2022-10-07T01:16:36.690Z,15.88
2022-10-07T01:19:10.765Z,16.85
2022-10-07T01:22:01.343Z,12.95
2022-10-07T01:38:48.902Z,10.95
2022-10-07T01:41:19.817Z,15.98
2022-10-07T01:43:48.606Z,11.65
2022-10-07T01:46:26.931Z,10.52
2022-10-07T01:48:54.467Z,12.75
2022-10-07T01:51:29.061Z,17.33
2022-10-07T01:54:27.612Z,10.82
2022-10-07T01:57:11.129Z,9.38
2022-10-07T01:59:51.568Z,12.07
2022-10-07T02:02:29.014Z,8.77
2022-10-07T02:05:09.355Z,18.15
2022-10-07T02:08:04.970Z,13.40
2022-10-07T02:10:53.957Z,15.73
2022-10-07T02:13:33.475Z,14.10
2022-10-07T02:16:00.155Z,17.10
2022-10-07T02:18:31.619Z,11.55
2022-10-07T02:20:59.972Z,10.95
2022-10-07T02:23:27.955Z,12.20
2022-10-07T02:25:56.625Z,8.30
2022-10-07T02:28:25.599Z,8.30
2022-10-07T02:30:55.690Z,10.27
2022-10-07T02:33:28.154Z,11.30
2022-10-07T02:38:25.317Z,10.65
2022-10-07T02:40:51.889Z,12.60
2022-10-07T02:43:24.235Z,13.07
2022-10-07T02:48:42.156Z,7.97
2022-10-07T02:51:21.009Z,16.95
2022-10-07T02:53:51.332Z,13.55
2022-10-07T02:56:22.907Z,13.00
2022-10-07T02:58:51.115Z,11.82
2022-10-07T03:01:23.522Z,6.88
2022-10-07T03:03:50.273Z,13.45
2022-10-07T03:06:19.426Z,11.18
2022-10-07T03:08:48.002Z,13.13
2022-10-07T03:11:14.860Z,10.80
2022-10-07T03:13:41.566Z,9.35
2022-10-07T03:16:08.326Z,11.18
2022-10-07T03:18:34.990Z,14.00
2022-10-07T03:21:01.657Z,19.10
2022-10-07T03:23:29.518Z,8.48
2022-10-07T03:25:58.288Z,11.25
2022-10-07T03:28:27.103Z,12.48
2022-10-07T03:30:54.355Z,9.38
2022-10-07T03:33:25.855Z,12.85
2022-10-07T03:35:52.492Z,12.03
2022-10-07T03:38:19.134Z,11.10
2022-10-07T03:40:45.819Z,15.95
2022-10-07T03:43:12.562Z,12.57
2022-10-07T03:46:05.933Z,9.13
2022-10-07T03:48:32.684Z,13.70
2022-10-07T03:50:59.473Z,8.27
2022-10-07T03:53:29.705Z,12.30
2022-10-07T03:55:56.454Z,12.75
2022-10-07T03:58:23.369Z,12.48
2022-10-07T04:00:50.103Z,9.23
2022-10-07T04:03:18.736Z,12.25
2022-10-07T04:05:58.256Z,11.38
2022-10-07T04:08:28.066Z,11.48
2022-10-07T04:10:55.603Z,9.77
2022-10-07T04:13:22.259Z,15.82
2022-10-07T04:15:49.364Z,10.60
2022-10-07T04:18:16.114Z,9.13
2022-10-07T04:20:42.862Z,10.63
2022-10-07T04:23:09.550Z,8.32
2022-10-07T04:25:37.697Z,9.05
2022-10-07T04:28:15.953Z,7.22
2022-10-07T04:30:43.885Z,9.85
2022-10-07T04:33:11.874Z,13.18
2022-10-07T04:35:40.219Z,10.80
2022-10-07T04:38:11.922Z,10.95
2022-10-07T04:40:41.025Z,10.38
2022-10-07T04:43:19.221Z,11.15
2022-10-07T04:45:52.285Z,11.30
2022-10-07T04:48:20.587Z,8.52
2022-10-07T04:50:48.073Z,8.30
2022-10-07T04:53:16.595Z,12.48
2022-10-07T04:55:49.106Z,16.75
2022-10-07T04:58:17.023Z,10.32
2022-10-07T05:00:46.405Z,14.57
2022-10-07T05:03:14.638Z,9.95
2022-10-07T05:05:43.382Z,7.60
2022-10-07T05:08:10.649Z,8.73
2022-10-07T05:10:39.071Z,11.63
2022-10-07T05:13:12.319Z,8.73
2022-10-07T05:15:48.019Z,15.25
2022-10-07T05:18:15.183Z,7.57
2022-10-07T05:20:43.457Z,9.48
2022-10-07T05:23:10.205Z,13.48
2022-10-07T05:25:36.787Z,21.30
2022-10-07T05:28:03.562Z,15.80
2022-10-07T05:30:30.295Z,9.65
2022-10-07T05:32:57.045Z,12.75
2022-10-07T05:35:23.645Z,9.80
2022-10-07T05:37:53.938Z,13.52
2022-10-07T05:40:21.609Z,14.43
2022-10-07T05:42:48.234Z,9.07
2022-10-07T05:45:14.889Z,17.25
2022-10-07T05:47:41.607Z,11.48
2022-10-07T05:50:08.853Z,14.57
2022-10-07T05:52:35.835Z,12.10
2022-10-07T05:55:02.647Z,25.48
2022-10-07T05:57:29.427Z,13.30
2022-10-07T05:59:58.863Z,19.15
2022-10-07T06:02:26.076Z,16.00
2022-10-07T06:04:52.781Z,14.50
2022-10-07T06:07:21.426Z,15.10
2022-10-07T06:10:07.865Z,14.70
2022-10-07T06:12:53.262Z,21.52
2022-10-07T06:15:19.894Z,20.58
2022-10-07T06:17:46.978Z,18.15
2022-10-07T06:20:14.361Z,24.95
2022-10-07T06:22:41.262Z,17.58
2022-10-07T06:25:08.684Z,18.85
2022-10-07T06:27:36.159Z,21.60
2022-10-07T06:30:03.529Z,19.23
2022-10-07T06:32:31.236Z,16.63
2022-10-07T06:34:57.843Z,20.48
2022-10-07T06:37:24.462Z,13.60
2022-10-07T06:39:51.122Z,15.82
2022-10-07T06:42:17.697Z,19.15
2022-10-07T06:44:44.585Z,15.80
2022-10-07T06:47:12.019Z,22.90
2022-10-07T06:49:39.057Z,14.05
2022-10-07T06:52:05.889Z,20.13
2022-10-07T06:54:32.643Z,14.48
2022-10-07T06:56:59.232Z,18.38
2022-10-07T06:59:27.918Z,18.45
2022-10-07T07:01:54.650Z,25.73
2022-10-07T07:04:21.314Z,16.70
2022-10-07T07:06:47.917Z,20.08
2022-10-07T07:09:14.558Z,16.27
2022-10-07T07:11:43.526Z,14.73
2022-10-07T07:14:12.038Z,19.98
2022-10-07T07:16:39.047Z,16.95
2022-10-07T07:19:08.813Z,12.20
2022-10-07T07:21:38.317Z,18.08
2022-10-07T07:24:05.540Z,15.52
2022-10-07T07:26:32.630Z,13.07
2022-10-07T07:29:02.368Z,16.25
2022-10-07T07:31:31.267Z,14.32
2022-10-07T07:34:01.777Z,20.98
2022-10-07T07:36:31.013Z,15.15
2022-10-07T07:39:04.684Z,13.95
2022-10-07T07:41:33.802Z,13.32
2022-10-07T07:44:03.249Z,18.88
2022-10-07T07:46:36.245Z,17.70
2022-10-07T07:49:03.880Z,14.50
2022-10-07T07:51:30.925Z,11.32
2022-10-07T07:53:57.910Z,20.52
2022-10-07T07:56:24.603Z,17.17
2022-10-07T07:58:51.233Z,12.52
2022-10-07T08:01:18.758Z,16.08
2022-10-07T08:03:47.077Z,12.05
2022-10-07T08:06:16.131Z,24.88
2022-10-07T08:08:45.553Z,16.08
2022-10-07T08:11:13.252Z,16.52
2022-10-07T08:13:41.326Z,12.18
2022-10-07T08:16:09.713Z,12.48
2022-10-07T08:18:36.305Z,15.93
2022-10-07T08:21:05.211Z,13.23
2022-10-07T08:23:32.191Z,17.20
2022-10-07T08:26:00.162Z,17.83
2022-10-07T08:28:28.337Z,12.82
2022-10-07T08:30:55.669Z,14.70
2022-10-07T08:33:22.893Z,22.85
2022-10-07T08:35:58.056Z,17.40
2022-10-07T08:38:25.537Z,14.15
2022-10-07T08:40:53.660Z,13.27
2022-10-07T08:43:23.888Z,15.82
2022-10-07T08:45:52.874Z,11.65
2022-10-07T08:48:25.966Z,12.13
2022-10-07T08:51:05.174Z,12.77
2022-10-07T08:53:34.766Z,9.80
2022-10-07T08:56:09.794Z,9.68
2022-10-07T08:59:13.927Z,11.93
2022-10-07T09:02:31.559Z,7.72
2022-10-07T09:05:26.915Z,10.15
2022-10-07T09:07:58.161Z,13.27
2022-10-07T09:10:44.364Z,17.38
2022-10-07T09:13:16.097Z,13.45
2022-10-07T09:16:00.501Z,16.60
2022-10-07T09:18:35.059Z,11.73
2022-10-07T09:21:06.031Z,9.52
2022-10-07T09:23:33.954Z,12.57
2022-10-07T09:26:00.592Z,10.77
2022-10-07T09:28:32.738Z,19.50
2022-10-07T09:31:00.845Z,19.20
2022-10-07T09:33:30.808Z,11.75
2022-10-07T09:36:05.264Z,13.68
2022-10-07T09:38:37.578Z,14.98
2022-10-07T09:41:31.309Z,10.88
2022-10-07T09:44:15.844Z,10.02
2022-10-07T09:46:54.091Z,15.45
2022-10-07T09:49:31.701Z,21.02
2022-10-07T09:52:04.924Z,26.17
2022-10-07T09:54:34.365Z,8.98
2022-10-07T09:57:03.633Z,16.85
2022-10-07T09:59:35.798Z,10.98
2022-10-07T10:02:15.323Z,8.38
2022-10-07T10:04:52.633Z,6.68
2022-10-07T10:07:33.821Z,5.47
2022-10-07T10:10:04.930Z,17.30
2022-10-07T10:12:47.117Z,15.65
2022-10-07T10:15:38.312Z,13.15
2022-10-07T10:18:27.452Z,13.30
2022-10-07T10:20:55.033Z,18.23
2022-10-07T10:23:40.388Z,11.07
2022-10-07T10:26:28.296Z,7.18
2022-10-07T10:29:48.948Z,9.98
2022-10-07T10:32:43.742Z,11.90
2022-10-07T10:35:25.652Z,12.77
2022-10-07T10:37:59.389Z,9.77
2022-10-07T10:40:51.309Z,11.75
2022-10-07T10:43:45.133Z,13.43
2022-10-07T10:46:38.273Z,11.93
2022-10-07T10:49:43.321Z,12.98
2022-10-07T10:52:24.203Z,10.38
2022-10-07T10:55:05.768Z,6.93
2022-10-07T10:57:35.132Z,8.35
2022-10-07T11:00:22.109Z,9.02
2022-10-07T11:03:05.733Z,17.02
2022-10-07T11:05:39.345Z,16.15
2022-10-07T11:08:17.823Z,7.10
2022-10-07T11:10:57.233Z,10.77
2022-10-07T11:13:52.837Z,11.23
2022-10-07T11:16:32.039Z,8.55
2022-10-07T11:19:13.871Z,6.93
2022-10-07T11:21:52.443Z,9.13
2022-10-07T11:24:36.512Z,6.43
2022-10-07T11:27:25.208Z,9.32
2022-10-07T11:30:23.096Z,8.40
2022-10-07T11:33:17.561Z,8.00
2022-10-07T11:35:53.996Z,10.40
2022-10-07T11:38:25.251Z,11.13
2022-10-07T11:40:57.238Z,9.57
2022-10-07T11:43:39.058Z,8.85
2022-10-07T11:46:21.040Z,7.30
2022-10-07T11:48:55.615Z,11.27
2022-10-07T11:51:41.118Z,8.57
2022-10-07T11:54:14.445Z,6.20
2022-10-07T11:56:51.489Z,9.70
2022-10-07T11:59:48.850Z,9.98
2022-10-07T12:02:30.628Z,11.52
2022-10-07T12:07:40.929Z,9.95
2022-10-07T12:12:45.558Z,6.72
2022-10-07T12:15:27.756Z,11.82
2022-10-07T12:18:17.529Z,6.75
2022-10-07T12:20:52.798Z,8.18
2022-10-07T12:23:22.343Z,7.18
2022-10-07T12:25:51.442Z,10.82
2022-10-07T12:28:48.885Z,12.23
2022-10-07T12:31:15.494Z,7.13
2022-10-07T12:33:45.143Z,8.10
2022-10-07T12:36:30.065Z,6.60
2022-10-07T12:38:59.472Z,9.38
2022-10-07T12:41:44.031Z,11.00
2022-10-07T12:44:35.627Z,9.60
2022-10-07T12:47:23.091Z,11.25
2022-10-07T12:49:58.628Z,8.05
2022-10-07T12:52:48.133Z,10.63
2022-10-07T12:55:20.161Z,9.98
2022-10-07T13:00:24.720Z,12.52
2022-10-07T13:03:42.438Z,6.68
2022-10-07T13:06:27.068Z,6.10
2022-10-07T13:09:14.628Z,9.18
2022-10-07T13:12:19.538Z,8.43
2022-10-07T13:15:10.936Z,6.10
2022-10-07T13:17:54.069Z,8.35
2022-10-07T13:20:23.549Z,8.80
2022-10-07T13:22:50.349Z,12.15
2022-10-07T13:25:19.723Z,8.57
2022-10-07T13:27:54.853Z,5.93
2022-10-07T13:30:40.330Z,3.88
2022-10-07T13:33:26.365Z,10.23
2022-10-07T13:36:12.850Z,7.57
2022-10-07T13:38:39.758Z,17.27
2022-10-07T13:41:19.320Z,4.95
2022-10-07T13:43:52.560Z,2.90
2022-10-07T13:46:20.634Z,4.70
2022-10-07T13:48:49.020Z,8.65
2022-10-07T13:51:27.205Z,11.90
2022-10-07T13:53:58.251Z,7.03
2022-10-07T13:56:39.983Z,5.82
2022-10-07T13:59:12.205Z,8.85
2022-10-07T14:01:40.398Z,9.50
2022-10-07T14:04:21.435Z,7.00
2022-10-07T14:07:10.803Z,9.40
2022-10-07T14:09:43.420Z,7.13
2022-10-07T14:12:24.926Z,8.95
2022-10-07T14:15:01.698Z,13.07
2022-10-07T14:17:41.013Z,11.63
2022-10-07T14:20:28.381Z,4.60
2022-10-07T14:22:58.109Z,16.40
2022-10-07T14:25:28.038Z,7.18
2022-10-07T14:27:58.369Z,4.57
2022-10-07T14:30:25.369Z,6.32
2022-10-07T14:33:57.142Z,4.28
2022-10-07T14:36:23.846Z,5.38
2022-10-07T14:38:52.279Z,6.97
2022-10-07T14:41:23.826Z,5.95
2022-10-07T14:43:52.035Z,6.13
2022-10-07T14:46:20.213Z,7.82
2022-10-07T14:48:47.649Z,10.30
2022-10-07T14:51:18.083Z,7.80
2022-10-07T14:53:49.220Z,7.00
2022-10-07T14:56:28.032Z,8.38
2022-10-07T14:58:56.430Z,8.13
2022-10-07T15:01:24.740Z,8.38
2022-10-07T15:03:51.459Z,9.20
2022-10-07T15:06:19.386Z,8.00
2022-10-07T15:08:47.408Z,10.60
2022-10-07T15:11:18.914Z,6.07
2022-10-07T15:13:47.813Z,8.50
2022-10-07T15:16:17.540Z,5.82
2022-10-07T15:18:51.043Z,6.93
2022-10-07T15:21:19.079Z,10.07
2022-10-07T15:23:50.470Z,8.70
2022-10-07T15:26:17.963Z,9.23
2022-10-07T15:28:44.644Z,5.80
2022-10-07T15:31:11.376Z,7.07
2022-10-07T15:33:38.833Z,8.55
2022-10-07T15:36:05.725Z,18.02
2022-10-07T15:38:32.602Z,7.63
2022-10-07T15:41:01.625Z,7.85
2022-10-07T15:43:28.903Z,4.20
2022-10-07T15:45:58.843Z,5.10
2022-10-07T15:48:26.130Z,6.70
2022-10-07T15:50:56.257Z,7.00
2022-10-07T15:53:24.100Z,6.78
2022-10-07T15:55:55.226Z,4.40
2022-10-07T15:58:24.855Z,8.70
2022-10-07T16:01:03.605Z,12.40
2022-10-07T16:03:39.982Z,14.68
2022-10-07T16:06:14.918Z,17.05
2022-10-07T16:08:41.681Z,17.02
2022-10-07T16:11:10.545Z,9.73
2022-10-07T16:13:39.536Z,6.80
2022-10-07T16:16:08.939Z,4.03
2022-10-07T16:18:38.325Z,7.22
2022-10-07T16:21:21.677Z,6.90
2022-10-07T16:23:49.747Z,8.05
2022-10-07T16:26:19.511Z,9.50
2022-10-07T16:29:06.658Z,7.40
2022-10-07T16:31:35.767Z,9.40
2022-10-07T16:34:03.474Z,9.05
2022-10-07T16:36:31.273Z,6.70
2022-10-07T16:39:03.413Z,4.82
2022-10-07T16:43:59.353Z,7.47
2022-10-07T16:46:26.924Z,10.23
2022-10-07T16:48:53.878Z,9.32
2022-10-07T16:51:23.016Z,6.65
2022-10-07T16:53:53.310Z,12.75
2022-10-07T16:56:20.495Z,7.85
2022-10-07T16:58:47.633Z,5.53
2022-10-07T17:01:16.897Z,8.00
2022-10-07T17:03:49.988Z,9.75
2022-10-07T17:06:19.307Z,9.98
2022-10-07T17:08:48.400Z,5.38
2022-10-07T17:11:30.183Z,10.38
2022-10-07T17:14:23.733Z,9.23
2022-10-07T17:16:55.502Z,13.02
2022-10-07T17:19:24.532Z,14.13
2022-10-07T17:21:52.560Z,10.75
2022-10-07T17:24:21.923Z,7.07
2022-10-07T17:26:49.729Z,11.50
2022-10-07T17:29:18.529Z,17.95
2022-10-07T17:31:48.358Z,8.40
2022-10-07T17:34:16.236Z,10.60
2022-10-07T17:36:47.788Z,10.95
2022-10-07T17:39:15.094Z,17.15
2022-10-07T17:41:41.797Z,10.73
2022-10-07T17:44:10.431Z,10.77
2022-10-07T17:46:39.403Z,15.90
2022-10-07T17:49:09.388Z,15.68
2022-10-07T17:51:37.631Z,16.52
2022-10-07T17:54:06.071Z,13.48
2022-10-07T17:56:34.785Z,14.43
2022-10-07T17:59:02.197Z,13.45
2022-10-07T18:01:31.916Z,10.80
2022-10-07T18:04:11.295Z,16.73
2022-10-07T18:06:39.428Z,17.75
2022-10-07T18:09:07.969Z,15.63
2022-10-07T18:11:53.319Z,19.58
2022-10-07T18:14:38.597Z,16.48
2022-10-07T18:17:06.999Z,15.95
2022-10-07T18:19:33.770Z,13.32
2022-10-07T18:22:01.158Z,21.27
2022-10-07T18:24:28.970Z,14.57
2022-10-07T18:26:59.294Z,19.98
2022-10-07T18:29:36.062Z,19.55
2022-10-07T18:32:02.727Z,22.45
2022-10-07T18:34:29.321Z,17.98
2022-10-07T18:36:57.170Z,14.27
2022-10-07T18:39:30.886Z,15.10
2022-10-07T18:41:58.340Z,17.00
2022-10-07T18:44:25.067Z,21.65
2022-10-07T18:46:52.621Z,20.70
2022-10-07T18:49:19.573Z,18.95
2022-10-07T18:51:47.321Z,16.73
2022-10-07T18:54:14.081Z,18.02
2022-10-07T18:56:41.581Z,20.00
2022-10-07T18:59:09.959Z,19.55
2022-10-07T19:01:37.696Z,25.52
2022-10-07T19:04:05.673Z,23.42
2022-10-07T19:06:35.750Z,22.10
2022-10-07T19:09:06.429Z,22.63
2022-10-07T19:11:33.513Z,26.88
2022-10-07T19:14:00.993Z,25.52
2022-10-07T19:16:35.887Z,28.90
2022-10-07T19:19:04.112Z,22.65
2022-10-07T19:21:32.148Z,29.85
2022-10-07T19:24:01.449Z,32.55
2022-10-07T19:26:31.115Z,24.42
2022-10-07T19:28:58.149Z,24.75
2022-10-07T19:31:29.135Z,27.60
2022-10-07T19:34:03.356Z,21.38
2022-10-07T19:36:33.301Z,19.38
2022-10-07T19:39:01.212Z,21.73
2022-10-07T19:41:30.169Z,25.77
2022-10-07T19:43:57.781Z,21.83
2022-10-07T19:46:26.616Z,19.90
2022-10-07T19:48:58.157Z,15.45
2022-10-07T19:51:27.412Z,17.23
2022-10-07T19:53:59.585Z,20.63
2022-10-07T19:56:31.853Z,18.02
2022-10-07T20:01:32.262Z,17.30
2022-10-07T20:04:20.973Z,19.38
2022-10-07T20:06:48.175Z,18.58
2022-10-07T20:09:17.668Z,19.30
2022-10-07T20:11:44.536Z,19.25
2022-10-07T20:14:11.191Z,16.38
2022-10-07T20:16:39.320Z,14.70
2022-10-07T20:19:15.468Z,13.77
2022-10-07T20:21:42.345Z,15.68
2022-10-07T20:24:09.899Z,19.35
2022-10-07T20:26:38.634Z,18.67
2022-10-07T20:29:07.270Z,15.93
2022-10-07T20:31:38.608Z,15.38
2022-10-07T20:34:06.514Z,17.73
2022-10-07T20:36:38.178Z,14.32
2022-10-07T20:39:36.373Z,23.50
2022-10-07T20:42:22.138Z,16.33
2022-10-07T20:44:49.689Z,18.02
2022-10-07T20:47:16.573Z,20.95
2022-10-07T20:49:43.233Z,15.10
2022-10-07T20:52:13.986Z,18.70
2022-10-07T20:54:40.657Z,18.70
2022-10-07T20:57:07.348Z,18.58
2022-10-07T20:59:33.927Z,13.25
2022-10-07T21:02:03.821Z,17.77
2022-10-07T21:04:33.621Z,22.05
2022-10-07T21:07:01.637Z,17.85
2022-10-07T21:09:28.278Z,19.13
2022-10-07T21:11:56.661Z,17.35
2022-10-07T21:14:23.381Z,17.27
2022-10-07T21:16:50.088Z,21.45
2022-10-07T21:19:17.174Z,15.90
2022-10-07T21:21:43.897Z,17.40
2022-10-07T21:24:10.498Z,15.13
2022-10-07T21:26:37.221Z,16.58
2022-10-07T21:29:08.140Z,19.73
2022-10-07T21:31:35.769Z,18.88
2022-10-07T21:34:10.484Z,27.80
2022-10-07T21:36:39.727Z,22.23
2022-10-07T21:39:07.079Z,21.83
2022-10-07T21:41:35.417Z,22.77
2022-10-07T21:44:04.287Z,20.60
2022-10-07T21:46:32.112Z,19.25
2022-10-07T21:48:59.398Z,19.00
2022-10-07T21:51:27.320Z,16.75
2022-10-07T21:53:55.230Z,20.65
2022-10-07T21:56:21.957Z,15.13
2022-10-07T21:58:49.577Z,15.30
2022-10-07T22:01:18.044Z,20.27
2022-10-07T22:03:45.578Z,14.32
2022-10-07T22:06:14.700Z,14.48
2022-10-07T22:08:42.844Z,14.80
2022-10-07T22:11:09.453Z,18.10
2022-10-07T22:13:43.206Z,15.70
2022-10-07T22:16:14.744Z,12.18
2022-10-07T22:18:43.980Z,18.48
2022-10-07T22:21:13.945Z,23.08
2022-10-07T22:23:41.548Z,17.70
2022-10-07T22:26:12.716Z,21.67
2022-10-07T22:28:40.885Z,18.25
2022-10-07T22:31:09.304Z,22.40
2022-10-07T22:33:37.973Z,23.05
2022-10-07T22:36:10.165Z,17.15
2022-10-07T22:38:36.947Z,22.25
2022-10-07T22:41:05.507Z,16.85
2022-10-07T22:43:36.392Z,20.30
2022-10-07T22:46:03.979Z,19.83
2022-10-07T22:48:31.418Z,18.45
2022-10-07T22:51:12.516Z,18.17
2022-10-07T22:53:43.032Z,17.13
2022-10-07T22:56:11.813Z,16.00
2022-10-07T22:58:40.668Z,19.38
2022-10-07T23:01:10.600Z,20.38
2022-10-07T23:03:39.528Z,12.73
2022-10-07T23:06:07.404Z,17.83
2022-10-07T23:08:35.244Z,20.27
2022-10-07T23:11:03.363Z,14.57
2022-10-07T23:13:32.885Z,14.55
2022-10-07T23:16:01.741Z,14.40
2022-10-07T23:18:29.401Z,15.70
2022-10-07T23:21:09.602Z,15.63
2022-10-07T23:23:38.131Z,21.58
2022-10-07T23:26:09.427Z,13.25
2022-10-07T23:28:36.276Z,23.02
2022-10-07T23:31:08.020Z,14.25
2022-10-07T23:33:35.513Z,20.83
2022-10-07T23:36:05.848Z,15.23
2022-10-07T23:38:33.464Z,10.80
2022-10-07T23:41:01.103Z,11.82
2022-10-07T23:43:31.251Z,14.07
2022-10-07T23:45:57.911Z,15.95
2022-10-07T23:48:24.577Z,13.93
2022-10-07T23:50:52.567Z,11.18
2022-10-07T23:53:20.794Z,15.10
2022-10-07T23:55:49.100Z,11.90
2022-10-07T23:58:17.129Z,10.30
